Time;durP1;ratioP1;P1;durP2;ratioP2;P2;SDS_P1;SDS_P2;PMS_P1;PMS_P2;Temp;Humidity;BMP_temperature;BMP_pressure;BME280_temperature;BME280_humidity;BME280_pressure;Samples;Min_cycle;Max_cycle;Signal;HPM_P1;HPM_P2
2023/04/01 00:01:28;;;;;;;3.53;1.27;;;14.10;70.30;;;;;;6212686;23;20447;-71
2023/04/01 00:03:56;;;;;;;2.53;0.90;;;14.10;71.20;;;;;;6213007;23;20405;-72
2023/04/01 00:06:24;;;;;;;3.00;1.33;;;14.10;70.30;;;;;;6212118;23;20405;-72
2023/04/01 00:08:52;;;;;;;1.77;1.10;;;14.10;70.30;;;;;;6213320;23;20802;-73
2023/04/01 00:11:19;;;;;;;5.03;1.20;;;14.10;70.60;;;;;;6211791;23;20886;-71
2023/04/01 00:13:46;;;;;;;4.40;1.50;;;14.10;70.50;;;;;;6212895;23;20500;-71
2023/04/01 00:16:13;;;;;;;1.93;1.37;;;14.20;70.40;;;;;;6211841;23;20405;-72
2023/04/01 00:18:40;;;;;;;4.83;1.10;;;14.10;70.30;;;;;;6212471;23;20444;-72
2023/04/01 00:21:07;;;;;;;2.27;1.17;;;14.00;70.50;;;;;;6212484;23;20437;-72
2023/04/01 00:23:36;;;;;;;3.80;1.30;;;14.10;70.90;;;;;;6212909;23;20406;-72
2023/04/01 00:26:04;;;;;;;3.50;1.47;;;14.10;70.80;;;;;;6212253;23;20416;-72
2023/04/01 00:28:31;;;;;;;4.63;1.30;;;14.10;70.60;;;;;;6212761;23;20500;-72
2023/04/01 00:30:58;;;;;;;4.90;1.30;;;14.10;70.90;;;;;;6211848;23;20409;-72
2023/04/01 00:33:25;;;;;;;2.73;1.20;;;14.10;71.00;;;;;;6212504;23;20715;-72
2023/04/01 00:35:52;;;;;;;3.67;1.30;;;14.10;70.80;;;;;;6212265;23;21147;-71
2023/04/01 00:38:18;;;;;;;4.33;1.07;;;14.10;70.70;;;;;;6212442;23;20512;-71
2023/04/01 00:40:47;;;;;;;2.73;1.20;;;14.20;70.80;;;;;;6212264;23;20459;-70
2023/04/01 00:43:18;;;;;;;4.13;1.30;;;14.10;70.90;;;;;;6212577;23;20412;-71
2023/04/01 00:45:47;;;;;;;3.47;1.13;;;14.00;70.90;;;;;;6211865;23;20393;-71
2023/04/01 00:48:18;;;;;;;3.23;1.50;;;14.10;71.10;;;;;;6212494;23;20488;-70
2023/04/01 00:50:49;;;;;;;3.10;1.27;;;14.10;71.40;;;;;;6211971;23;20393;-72
2023/04/01 00:53:18;;;;;;;1.97;1.27;;;14.00;71.50;;;;;;6212331;23;20519;-71
2023/04/01 00:55:50;;;;;;;5.13;1.40;;;14.00;71.50;;;;;;6212336;23;20405;-71
2023/04/01 00:58:21;;;;;;;2.27;0.90;;;13.90;71.60;;;;;;6211956;23;20401;-71
2023/04/01 01:00:51;;;;;;;2.53;0.93;;;14.00;71.50;;;;;;6212374;23;20448;-71
2023/04/01 01:03:18;;;;;;;2.57;1.27;;;14.00;71.60;;;;;;6212258;23;20436;-72
2023/04/01 01:06:00;;;;;;;4.13;1.23;;;14.00;71.40;;;;;;6212255;23;20415;-70
2023/04/01 01:08:37;;;;;;;3.10;1.10;;;14.10;71.60;;;;;;6212435;23;20411;-72
2023/04/01 01:11:07;;;;;;;3.13;1.30;;;14.20;71.20;;;;;;6212381;23;20389;-71
2023/04/01 01:13:41;;;;;;;3.17;1.30;;;14.20;70.90;;;;;;6212245;23;20488;-72
2023/04/01 01:16:19;;;;;;;3.40;1.37;;;14.20;71.00;;;;;;6212306;23;20400;-71
2023/04/01 01:18:53;;;;;;;2.80;1.10;;;14.20;71.00;;;;;;6211926;23;20389;-72
2023/04/01 01:21:56;;;;;;;2.10;0.93;;;14.20;70.90;;;;;;6211765;23;20831;-70
2023/04/01 01:24:51;;;;;;;3.17;1.27;;;14.20;70.70;;;;;;6202411;23;20562;-72
2023/04/01 01:27:22;;;;;;;3.43;1.17;;;14.20;70.80;;;;;;6212012;23;20391;-71
2023/04/01 01:30:16;;;;;;;2.77;0.97;;;14.10;71.10;;;;;;6212576;23;20397;-71
2023/04/01 01:33:11;;;;;;;3.90;1.17;;;14.20;71.50;;;;;;6212028;23;20389;-71
2023/04/01 01:35:43;;;;;;;3.97;1.53;;;14.10;71.40;;;;;;6210621;22;20500;-71
2023/04/01 01:38:14;;;;;;;2.67;1.30;;;14.00;71.70;;;;;;6211990;23;20439;-70
2023/04/01 01:40:45;;;;;;;2.20;1.33;;;14.00;72.80;;;;;;6212435;23;20830;-71
2023/04/01 01:43:14;;;;;;;2.17;1.20;;;14.00;72.60;;;;;;6212274;23;20409;-72
2023/04/01 01:45:47;;;;;;;2.37;1.10;;;14.00;72.50;;;;;;6211931;23;20404;-72
2023/04/01 01:48:15;;;;;;;1.17;0.93;;;14.00;72.30;;;;;;6212440;23;20393;-71
2023/04/01 01:50:45;;;;;;;2.03;0.90;;;14.10;72.90;;;;;;6212440;23;20433;-71
2023/04/01 01:53:13;;;;;;;1.90;1.17;;;14.00;73.40;;;;;;6211618;23;20939;-70
2023/04/01 01:55:42;;;;;;;1.93;0.90;;;14.00;73.80;;;;;;6212431;23;20472;-71
2023/04/01 01:58:14;;;;;;;1.70;0.93;;;13.90;73.60;;;;;;6211610;23;20957;-71
2023/04/01 02:00:45;;;;;;;1.73;0.70;;;13.90;74.00;;;;;;6211698;23;20459;-72
2023/04/01 02:03:14;;;;;;;2.10;1.07;;;13.90;74.00;;;;;;6211582;23;20432;-71
2023/04/01 02:05:43;;;;;;;1.20;1.10;;;13.80;73.50;;;;;;6214147;23;20798;-71
2023/04/01 02:08:15;;;;;;;2.40;0.90;;;13.80;73.40;;;;;;6214224;23;20709;-71
2023/04/01 02:10:46;;;;;;;1.43;1.03;;;13.80;73.20;;;;;;6214267;23;20467;-71
2023/04/01 02:13:20;;;;;;;2.87;0.80;;;13.80;73.00;;;;;;6213521;23;20407;-71
2023/04/01 02:15:50;;;;;;;1.07;0.60;;;13.80;72.30;;;;;;6213486;23;20393;-71
2023/04/01 02:18:19;;;;;;;1.70;0.83;;;13.70;72.00;;;;;;6214260;23;20397;-71
2023/04/01 02:20:48;;;;;;;2.27;0.87;;;13.70;71.80;;;;;;6213391;23;20544;-73
2023/04/01 02:23:15;;;;;;;0.90;0.40;;;13.70;71.40;;;;;;6212885;23;20432;-71
2023/04/01 02:25:43;;;;;;;1.63;0.60;;;13.70;71.20;;;;;;6213397;23;20515;-71
2023/04/01 02:28:15;;;;;;;1.80;0.60;;;13.70;70.70;;;;;;6213802;23;20731;-72
2023/04/01 02:30:44;;;;;;;0.80;0.60;;;13.70;70.60;;;;;;6214029;23;20455;-72
2023/04/01 02:33:11;;;;;;;2.00;0.80;;;13.70;70.50;;;;;;6213711;23;20401;-72
2023/04/01 02:35:38;;;;;;;0.63;0.63;;;13.70;70.30;;;;;;6212934;23;20504;-72
2023/04/01 02:38:07;;;;;;;2.57;0.80;;;13.70;69.80;;;;;;6213916;23;20503;-71
2023/04/01 02:40:44;;;;;;;1.37;0.53;;;13.70;69.50;;;;;;6213484;23;20757;-71
2023/04/01 02:43:11;;;;;;;0.50;0.50;;;13.70;69.50;;;;;;6213928;23;20443;-72
2023/04/01 02:45:38;;;;;;;1.47;0.70;;;13.70;69.70;;;;;;6213507;23;20452;-72
2023/04/01 02:48:05;;;;;;;0.33;0.33;;;13.80;69.50;;;;;;6213936;23;20411;-71
2023/04/01 02:50:32;;;;;;;1.13;0.63;;;13.80;69.50;;;;;;6213244;23;20745;-73
2023/04/01 02:52:59;;;;;;;0.67;0.60;;;13.80;69.00;;;;;;6213075;23;20440;-71
2023/04/01 02:55:27;;;;;;;1.10;0.50;;;13.80;68.90;;;;;;6213094;23;20417;-71
2023/04/01 02:57:54;;;;;;;1.87;0.80;;;13.70;68.90;;;;;;6213659;23;20492;-71
2023/04/01 03:00:21;;;;;;;1.50;0.53;;;13.80;68.90;;;;;;6213727;23;20463;-71
2023/04/01 03:02:48;;;;;;;1.90;0.70;;;13.70;68.80;;;;;;6213072;23;20487;-70
2023/04/01 03:05:15;;;;;;;0.63;0.50;;;13.70;68.60;;;;;;6213128;23;20416;-71
2023/04/01 03:07:42;;;;;;;1.97;0.60;;;13.70;69.30;;;;;;6213593;23;20405;-71
2023/04/01 03:10:10;;;;;;;1.23;0.83;;;13.70;69.00;;;;;;6213243;23;20412;-71
2023/04/01 03:12:38;;;;;;;2.07;1.10;;;13.70;68.90;;;;;;6213411;23;20423;-73
2023/04/01 03:15:06;;;;;;;0.87;0.80;;;13.70;68.90;;;;;;6212333;23;20491;-72
2023/04/01 03:17:33;;;;;;;2.03;0.87;;;13.70;69.00;;;;;;6212955;23;20405;-72
2023/04/01 03:20:00;;;;;;;1.10;0.60;;;13.70;69.00;;;;;;6213146;23;20912;-72
2023/04/01 03:22:27;;;;;;;1.20;0.67;;;13.70;69.10;;;;;;6213494;23;20448;-71
2023/04/01 03:24:54;;;;;;;0.97;0.60;;;13.70;69.10;;;;;;6213218;23;20941;-72
2023/04/01 03:27:21;;;;;;;1.47;0.67;;;13.70;68.60;;;;;;6213489;23;20439;-72
2023/04/01 03:29:49;;;;;;;2.63;0.73;;;13.70;68.60;;;;;;6213846;23;20408;-72
2023/04/01 03:32:16;;;;;;;1.07;0.67;;;13.70;68.60;;;;;;6214075;23;20405;-71
2023/04/01 03:34:43;;;;;;;1.03;0.63;;;13.70;68.80;;;;;;6214619;23;20559;-71
2023/04/01 03:37:10;;;;;;;1.13;0.53;;;13.70;68.60;;;;;;6214484;23;20472;-72
2023/04/01 03:39:36;;;;;;;1.50;0.33;;;13.70;68.60;;;;;;6214019;23;20480;-71
2023/04/01 03:42:04;;;;;;;4.37;1.47;;;13.70;68.50;;;;;;6214872;23;20425;-72
2023/04/01 03:44:32;;;;;;;1.80;0.60;;;13.70;68.40;;;;;;6214403;23;20437;-72
2023/04/01 03:47:00;;;;;;;1.03;0.77;;;13.70;68.40;;;;;;6214621;23;20405;-71
2023/04/01 03:49:28;;;;;;;1.70;0.70;;;13.70;68.00;;;;;;6214410;23;20993;-71
2023/04/01 03:51:55;;;;;;;1.73;0.73;;;13.80;68.10;;;;;;6214027;23;20416;-71
2023/04/01 03:54:22;;;;;;;1.23;0.63;;;13.80;68.00;;;;;;6213477;23;20393;-71
2023/04/01 03:56:49;;;;;;;1.53;0.70;;;13.70;67.70;;;;;;6213908;23;20405;-72
2023/04/01 03:59:16;;;;;;;1.83;0.60;;;13.70;67.80;;;;;;6213943;23;20408;-71
2023/04/01 04:01:43;;;;;;;2.77;0.60;;;13.80;68.00;;;;;;6213673;23;20814;-73
2023/04/01 04:04:14;;;;;;;2.53;0.87;;;13.80;67.80;;;;;;6213917;23;20807;-72
2023/04/01 04:06:41;;;;;;;2.10;0.93;;;13.80;67.90;;;;;;6214193;23;20393;-71
2023/04/01 04:09:08;;;;;;;1.87;0.90;;;13.80;67.80;;;;;;6213789;23;20405;-71
2023/04/01 04:11:35;;;;;;;3.30;1.10;;;13.90;67.80;;;;;;6213716;23;20412;-71
2023/04/01 04:14:02;;;;;;;3.57;1.10;;;13.80;67.60;;;;;;6213857;23;20496;-71
2023/04/01 04:16:28;;;;;;;1.93;0.77;;;13.80;67.60;;;;;;6213261;23;20409;-72
2023/04/01 04:18:55;;;;;;;1.57;1.03;;;13.80;67.60;;;;;;6213497;23;21017;-72
2023/04/01 04:21:23;;;;;;;3.50;0.80;;;13.80;67.80;;;;;;6213571;23;20436;-72
2023/04/01 04:23:51;;;;;;;2.20;1.17;;;13.90;67.80;;;;;;6212772;23;20408;-72
2023/04/01 04:26:18;;;;;;;4.37;1.33;;;13.80;67.80;;;;;;6212761;23;20412;-72
2023/04/01 04:28:45;;;;;;;4.63;1.60;;;13.80;68.20;;;;;;6212708;23;20520;-71
2023/04/01 04:31:12;;;;;;;1.17;0.87;;;13.70;68.30;;;;;;6213916;23;20487;-71
2023/04/01 04:33:39;;;;;;;4.03;1.07;;;13.70;68.20;;;;;;6213483;23;20413;-70
2023/04/01 04:36:07;;;;;;;2.97;1.23;;;13.70;69.00;;;;;;6213220;23;20435;-72
2023/04/01 04:38:35;;;;;;;3.17;1.40;;;13.70;68.50;;;;;;6212549;23;20436;-70
2023/04/01 04:41:02;;;;;;;2.47;1.17;;;13.80;68.20;;;;;;6213267;23;20447;-72
2023/04/01 04:43:29;;;;;;;2.43;1.10;;;13.90;68.20;;;;;;6212827;23;20409;-71
2023/04/01 04:45:56;;;;;;;4.40;1.20;;;13.90;68.00;;;;;;6212971;23;20408;-71
2023/04/01 04:48:23;;;;;;;3.60;1.50;;;13.90;67.70;;;;;;6213148;23;20417;-71
2023/04/01 04:50:51;;;;;;;3.40;1.47;;;13.80;67.80;;;;;;6212139;23;20405;-72
2023/04/01 04:53:21;;;;;;;2.37;1.43;;;13.80;68.10;;;;;;6213414;23;20886;-71
2023/04/01 04:55:51;;;;;;;3.10;1.20;;;13.90;68.30;;;;;;6213843;23;20471;-71
2023/04/01 04:58:18;;;;;;;2.00;0.90;;;13.90;67.90;;;;;;6214547;23;20698;-71
2023/04/01 05:00:46;;;;;;;4.87;1.50;;;13.90;67.70;;;;;;6214470;23;20411;-71
2023/04/01 05:03:13;;;;;;;2.03;1.23;;;13.90;67.50;;;;;;6213927;23;20492;-72
2023/04/01 05:05:40;;;;;;;2.57;1.37;;;13.90;67.50;;;;;;6214067;23;20405;-71
2023/04/01 05:08:07;;;;;;;2.80;1.07;;;14.00;67.50;;;;;;6214242;23;20404;-71
2023/04/01 05:10:34;;;;;;;4.70;1.40;;;14.00;67.40;;;;;;6214221;23;20405;-71
2023/04/01 05:13:02;;;;;;;2.07;1.30;;;14.00;67.20;;;;;;6213854;23;20520;-71
2023/04/01 05:15:29;;;;;;;1.97;0.90;;;14.00;67.50;;;;;;6213923;23;20874;-72
2023/04/01 05:17:56;;;;;;;2.87;1.17;;;14.00;67.60;;;;;;6213570;23;20415;-71
2023/04/01 05:20:23;;;;;;;3.20;1.27;;;14.00;67.70;;;;;;6213434;23;20443;-71
2023/04/01 05:22:50;;;;;;;1.97;0.80;;;13.90;67.30;;;;;;6213561;23;20444;-71
2023/04/01 05:25:17;;;;;;;1.97;1.20;;;14.00;67.80;;;;;;6214413;23;20412;-70
2023/04/01 05:27:43;;;;;;;2.33;1.00;;;14.00;67.80;;;;;;6213645;23;20414;-71
2023/04/01 05:30:13;;;;;;;2.67;0.90;;;14.00;67.80;;;;;;6214413;23;20424;-71
2023/04/01 05:32:39;;;;;;;1.87;1.20;;;13.80;67.50;;;;;;6213823;23;20761;-71
2023/04/01 05:35:07;;;;;;;1.53;0.60;;;13.90;67.90;;;;;;6213823;23;20409;-71
2023/04/01 05:37:35;;;;;;;1.80;0.80;;;13.90;68.80;;;;;;6214160;23;20409;-72
2023/04/01 05:40:02;;;;;;;2.33;0.73;;;13.90;68.00;;;;;;6213104;23;20404;-72
2023/04/01 05:42:28;;;;;;;2.67;0.70;;;13.90;67.90;;;;;;6214130;23;20538;-71
2023/04/01 05:44:56;;;;;;;1.70;0.87;;;14.00;67.90;;;;;;6214220;23;20422;-71
2023/04/01 05:47:24;;;;;;;1.20;0.70;;;14.00;68.20;;;;;;6214126;23;20416;-71
2023/04/01 05:49:51;;;;;;;2.40;0.60;;;13.90;68.20;;;;;;6213691;23;20890;-71
2023/04/01 05:52:18;;;;;;;2.30;0.80;;;13.80;68.60;;;;;;6212935;23;20500;-71
2023/04/01 05:54:48;;;;;;;3.97;0.87;;;13.80;69.20;;;;;;6213663;23;20420;-72
2023/04/01 05:57:14;;;;;;;1.57;0.63;;;13.70;69.50;;;;;;6213711;23;20512;-71
2023/04/01 05:59:41;;;;;;;2.07;0.80;;;13.70;69.60;;;;;;6213534;23;20435;-71
2023/04/01 06:02:09;;;;;;;1.97;0.80;;;13.60;70.10;;;;;;6213088;23;20437;-72
2023/04/01 06:04:41;;;;;;;1.17;0.80;;;13.60;70.50;;;;;;6213172;23;20466;-71
2023/04/01 06:07:12;;;;;;;3.67;0.90;;;13.60;70.90;;;;;;6213787;23;20393;-71
2023/04/01 06:09:40;;;;;;;1.53;0.80;;;13.60;71.10;;;;;;6214535;23;20394;-70
2023/04/01 06:12:42;;;;;;;2.37;1.00;;;13.60;71.20;;;;;;6213626;23;20742;-71
2023/04/01 06:15:26;;;;;;;1.60;0.97;;;13.50;71.50;;;;;;6213130;23;20392;-71
2023/04/01 06:18:20;;;;;;;1.33;0.90;;;13.50;72.30;;;;;;6213696;23;20447;-70
2023/04/01 06:20:57;;;;;;;1.17;0.80;;;13.50;72.50;;;;;;6210420;23;20902;-72
2023/04/01 06:23:37;;;;;;;0.80;0.60;;;13.50;72.50;;;;;;6212739;23;20433;-71
2023/04/01 06:26:18;;;;;;;1.40;0.70;;;13.50;72.60;;;;;;6211309;23;20440;-71
2023/04/01 06:29:24;;;;;;;1.90;0.80;;;13.40;72.80;;;;;;6212925;23;20391;-72
2023/04/01 06:32:16;;;;;;;3.40;1.10;;;13.40;73.20;;;;;;6208883;23;20412;-71
2023/04/01 06:35:02;;;;;;;1.33;0.90;;;13.40;73.30;;;;;;6214436;23;20381;-71
2023/04/01 06:37:48;;;;;;;2.20;1.10;;;13.30;73.60;;;;;;6213805;23;20437;-71
2023/04/01 06:40:44;;;;;;;2.13;1.13;;;13.40;73.80;;;;;;6213479;23;20431;-72
2023/04/01 06:43:20;;;;;;;2.47;0.80;;;13.40;74.00;;;;;;6213889;23;20457;-72
2023/04/01 06:45:56;;;;;;;1.53;0.90;;;13.40;73.80;;;;;;6213651;23;20472;-72
2023/04/01 06:48:37;;;;;;;1.00;0.90;;;13.40;73.60;;;;;;6214348;23;20678;-73
2023/04/01 06:51:17;;;;;;;3.53;1.23;;;13.40;74.30;;;;;;6215428;23;20396;-71
2023/04/01 06:53:52;;;;;;;2.10;1.13;;;13.50;74.50;;;;;;6215262;23;20945;-71
2023/04/01 06:56:21;;;;;;;1.97;1.03;;;13.50;74.50;;;;;;6215614;23;20890;-72
2023/04/01 06:58:53;;;;;;;2.43;1.07;;;13.50;74.70;;;;;;6215522;23;20480;-72
2023/04/01 07:01:27;;;;;;;1.20;1.10;;;13.50;75.10;;;;;;6214473;23;20429;-72
2023/04/01 07:03:59;;;;;;;3.50;1.03;;;13.50;75.30;;;;;;6215196;23;20389;-71
2023/04/01 07:06:31;;;;;;;2.00;1.10;;;13.40;74.90;;;;;;6215627;23;20476;-71
2023/04/01 07:09:05;;;;;;;2.27;1.27;;;13.50;75.70;;;;;;6216293;23;20715;-71
2023/04/01 07:11:34;;;;;;;2.20;1.00;;;13.50;75.80;;;;;;6215355;23;20396;-71
2023/04/01 07:14:06;;;;;;;1.87;1.07;;;13.50;75.40;;;;;;6215697;23;20433;-72
2023/04/01 07:16:35;;;;;;;1.83;0.97;;;13.50;76.10;;;;;;6215413;23;20468;-71
2023/04/01 07:19:07;;;;;;;3.70;1.10;;;13.50;76.10;;;;;;6215725;23;20417;-72
2023/04/01 07:21:41;;;;;;;1.43;0.97;;;13.50;76.30;;;;;;6214680;23;20466;-73
2023/04/01 07:24:17;;;;;;;2.40;0.93;;;13.40;76.40;;;;;;6215145;23;20393;-72
2023/04/01 07:26:44;;;;;;;2.83;1.37;;;13.40;77.10;;;;;;6215105;23;20893;-71
2023/04/01 07:29:13;;;;;;;2.33;1.10;;;13.40;77.20;;;;;;6215891;23;20443;-71
2023/04/01 07:32:08;;;;;;;1.43;1.10;;;13.40;77.30;;;;;;6215518;23;20500;-74
2023/04/01 07:34:45;;;;;;;3.37;1.20;;;13.40;77.60;;;;;;6215611;23;20516;-73
2023/04/01 07:37:16;;;;;;;2.03;1.17;;;13.40;78.20;;;;;;6216365;23;20472;-74
2023/04/01 07:39:52;;;;;;;3.57;1.30;;;13.40;78.60;;;;;;6215218;23;20524;-73
2023/04/01 07:42:32;;;;;;;4.10;1.50;;;13.40;79.00;;;;;;6215995;23;20519;-73
2023/04/01 07:45:08;;;;;;;2.93;1.67;;;13.40;79.30;;;;;;6215736;23;20397;-75
2023/04/01 07:47:52;;;;;;;2.47;1.00;;;13.40;79.70;;;;;;6214195;23;20472;-73
2023/04/01 07:50:27;;;;;;;2.93;1.20;;;13.30;80.30;;;;;;6215884;23;20397;-74
2023/04/01 07:53:06;;;;;;;2.80;1.40;;;13.20;80.40;;;;;;6215767;23;20440;-73
2023/04/01 07:55:43;;;;;;;2.40;1.03;;;13.30;80.70;;;;;;6214446;23;20400;-74
2023/04/01 07:58:18;;;;;;;2.77;1.00;;;13.20;80.30;;;;;;6215599;23;20408;-74
2023/04/01 08:00:52;;;;;;;3.03;1.23;;;13.20;80.30;;;;;;6215333;23;20415;-75
2023/04/01 08:03:34;;;;;;;3.03;1.47;;;13.20;80.70;;;;;;6214334;23;20425;-75
2023/04/01 08:06:06;;;;;;;1.97;1.10;;;13.20;80.70;;;;;;6214740;23;20476;-75
2023/04/01 08:08:44;;;;;;;1.83;1.00;;;13.20;81.00;;;;;;6215309;23;20465;-74
2023/04/01 08:11:23;;;;;;;1.33;0.73;;;13.20;80.90;;;;;;6215728;23;20754;-74
2023/04/01 08:14:01;;;;;;;2.27;1.10;;;13.20;80.80;;;;;;6214231;23;20976;-73
2023/04/01 08:16:36;;;;;;;2.50;1.10;;;13.30;81.00;;;;;;6214092;23;20477;-72
2023/04/01 08:19:16;;;;;;;3.27;1.00;;;13.20;80.70;;;;;;6215409;23;20397;-72
2023/04/01 08:21:46;;;;;;;3.47;1.07;;;13.20;81.10;;;;;;6160531;23;20835;-72
2023/04/01 08:24:21;;;;;;;4.23;1.30;;;13.20;80.90;;;;;;6214248;23;20492;-74
2023/04/01 08:26:53;;;;;;;1.33;1.20;;;13.30;81.10;;;;;;6212523;23;20507;-75
2023/04/01 08:29:23;;;;;;;2.80;1.27;;;13.30;81.00;;;;;;6214330;23;20468;-74
2023/04/01 08:31:56;;;;;;;3.17;1.10;;;13.40;81.40;;;;;;6215414;23;20921;-74
2023/04/01 08:34:27;;;;;;;4.70;1.90;;;13.50;81.50;;;;;;6214236;23;20432;-75
2023/04/01 08:37:00;;;;;;;0.77;0.73;;;13.40;80.40;;;;;;6161813;23;20397;-75
2023/04/01 08:39:32;;;;;;;2.07;1.10;;;13.50;80.20;;;;;;6215589;23;20457;-75
2023/04/01 08:42:28;;;;;;;1.20;0.90;;;13.30;80.50;;;;;;6214976;23;20460;-74
2023/04/01 08:45:22;;;;;;;2.60;1.30;;;13.30;81.30;;;;;;6211348;23;20471;-72
2023/04/01 08:48:08;;;;;;;3.13;1.47;;;13.50;81.10;;;;;;6204393;23;20409;-71
2023/04/01 08:51:19;;;;;;;2.43;1.10;;;13.50;80.90;;;;;;6213440;23;20807;-70
2023/04/01 08:54:08;;;;;;;2.70;1.20;;;13.60;80.90;;;;;;6213476;23;20409;-69
2023/04/01 08:56:41;;;;;;;3.33;1.40;;;13.60;80.90;;;;;;6213132;23;20468;-70
2023/04/01 08:59:28;;;;;;;2.20;1.20;;;13.80;81.00;;;;;;6212783;23;20385;-73
2023/04/01 09:02:33;;;;;;;2.43;1.00;;;13.80;80.50;;;;;;6213027;23;20499;-73
2023/04/01 09:05:19;;;;;;;4.40;1.43;;;13.80;80.30;;;;;;6206691;23;20439;-74
2023/04/01 09:07:52;;;;;;;2.80;0.93;;;13.80;80.20;;;;;;6212393;23;20739;-75
2023/04/01 09:10:42;;;;;;;2.87;1.17;;;13.70;80.70;;;;;;6211051;23;20855;-73
2023/04/01 09:13:34;;;;;;;3.90;1.40;;;13.70;80.30;;;;;;6211592;23;20398;-74
2023/04/01 09:16:37;;;;;;;2.77;1.50;;;13.70;80.50;;;;;;6211953;23;20493;-74
2023/04/01 09:19:22;;;;;;;1.70;1.20;;;13.70;80.70;;;;;;6212350;23;20462;-74
2023/04/01 09:22:14;;;;;;;2.57;1.10;;;13.60;80.60;;;;;;6211880;23;20456;-73
2023/04/01 09:24:51;;;;;;;1.37;0.93;;;13.60;81.30;;;;;;6213802;23;20385;-74
2023/04/01 09:27:28;;;;;;;2.03;0.90;;;13.60;80.50;;;;;;6212273;23;20390;-73
2023/04/01 09:30:20;;;;;;;1.23;0.73;;;13.60;80.70;;;;;;6213019;23;20385;-73
2023/04/01 09:33:25;;;;;;;1.33;0.73;;;13.60;80.90;;;;;;6212807;23;20472;-73
2023/04/01 09:36:03;;;;;;;1.77;1.00;;;13.60;81.30;;;;;;6212074;23;20404;-76
2023/04/01 09:38:31;;;;;;;1.10;0.80;;;13.60;81.10;;;;;;6212444;23;20686;-73
2023/04/01 09:40:59;;;;;;;1.67;1.10;;;13.60;81.30;;;;;;6212251;23;20423;-74
2023/04/01 09:43:35;;;;;;;1.47;0.83;;;13.50;81.60;;;;;;6211792;23;20443;-75
2023/04/01 09:46:17;;;;;;;1.43;0.80;;;13.50;81.60;;;;;;6211970;23;20423;-73
2023/04/01 09:49:13;;;;;;;2.50;1.10;;;13.50;82.40;;;;;;6212115;23;20394;-73
2023/04/01 09:51:51;;;;;;;2.57;1.10;;;13.60;82.60;;;;;;6211987;23;20421;-73
2023/04/01 09:54:32;;;;;;;1.07;0.93;;;13.80;82.00;;;;;;6211987;23;20409;-73
2023/04/01 09:57:45;;;;;;;1.37;0.73;;;13.70;81.90;;;;;;6212531;23;20389;-74
2023/04/01 10:00:28;;;;;;;1.60;0.93;;;13.80;81.60;;;;;;6212114;23;20483;-73
2023/04/01 10:03:37;;;;;;;2.10;0.70;;;13.70;81.50;;;;;;6211439;23;20508;-75
2023/04/01 10:06:33;;;;;;;0.97;0.77;;;13.60;81.90;;;;;;6211592;23;20439;-74
2023/04/01 10:09:36;;;;;;;2.20;1.10;;;13.60;82.00;;;;;;6212602;23;20389;-74
2023/04/01 10:12:44;;;;;;;2.50;1.37;;;13.70;82.30;;;;;;6199685;23;20410;-74
2023/04/01 10:16:01;;;;;;;1.40;1.23;;;13.60;82.10;;;;;;6212842;23;20425;-74
2023/04/01 10:18:54;;;;;;;1.53;1.20;;;13.60;82.80;;;;;;6211578;23;20421;-73
2023/04/01 10:21:53;;;;;;;1.37;1.00;;;13.60;82.60;;;;;;6212202;23;20390;-73
2023/04/01 10:24:41;;;;;;;2.00;0.93;;;13.60;83.00;;;;;;6211742;23;20508;-73
2023/04/01 10:27:24;;;;;;;0.93;0.90;;;13.50;82.50;;;;;;6213604;23;20850;-73
2023/04/01 10:30:20;;;;;;;1.27;1.17;;;13.50;83.50;;;;;;6214382;23;20475;-73
2023/04/01 10:33:17;;;;;;;1.47;1.30;;;13.60;83.90;;;;;;6212871;23;21085;-72
2023/04/01 10:36:20;;;;;;;2.27;1.13;;;13.70;83.40;;;;;;6214512;23;20425;-73
2023/04/01 10:39:31;;;;;;;1.40;1.10;;;13.90;83.30;;;;;;6207447;22;20833;-72
2023/04/01 10:42:30;;;;;;;2.63;1.30;;;13.90;83.30;;;;;;6205549;23;20504;-73
2023/04/01 10:45:35;;;;;;;0.83;0.73;;;13.90;83.40;;;;;;6166828;23;20496;-72
2023/04/01 10:48:34;;;;;;;1.27;0.93;;;13.90;83.10;;;;;;6213179;23;20448;-72
2023/04/01 10:51:25;;;;;;;2.37;0.90;;;13.90;83.30;;;;;;6213589;23;20389;-72
2023/04/01 10:54:19;;;;;;;1.87;1.10;;;13.90;83.00;;;;;;6212032;23;20469;-72
2023/04/01 10:56:58;;;;;;;2.03;1.20;;;13.90;83.40;;;;;;6212920;23;20752;-72
2023/04/01 10:59:58;;;;;;;1.67;0.87;;;13.80;82.60;;;;;;6213552;23;20401;-74
2023/04/01 11:03:18;;;;;;;1.00;0.90;;;13.80;83.30;;;;;;6213051;23;20393;-72
2023/04/01 11:06:36;;;;;;;2.20;1.50;;;13.80;83.00;;;;;;6204206;23;20474;-74
2023/04/01 11:09:46;;;;;;;3.30;1.07;;;13.80;82.90;;;;;;6212885;23;20934;-73
2023/04/01 11:12:40;;;;;;;2.00;1.10;;;13.80;82.70;;;;;;6204742;23;20499;-73
2023/04/01 11:15:32;;;;;;;1.97;0.97;;;13.80;82.60;;;;;;6213685;23;20392;-72
2023/04/01 11:18:37;;;;;;;1.07;0.90;;;13.90;83.30;;;;;;6212874;23;20455;-73
2023/04/01 11:21:48;;;;;;;3.23;1.03;;;13.90;82.70;;;;;;6214201;23;20460;-73
2023/04/01 11:24:45;;;;;;;1.47;0.77;;;14.00;82.90;;;;;;6213793;23;20446;-74
2023/04/01 11:27:25;;;;;;;1.17;0.80;;;14.00;83.40;;;;;;6210171;23;20420;-73
2023/04/01 11:30:30;;;;;;;0.93;0.90;;;14.10;82.90;;;;;;6213036;23;20390;-74
2023/04/01 11:33:04;;;;;;;1.50;1.10;;;14.00;83.00;;;;;;6177925;23;20437;-73
2023/04/01 11:35:55;;;;;;;1.50;1.20;;;14.00;82.90;;;;;;6209086;23;20479;-73
2023/04/01 11:38:39;;;;;;;3.10;1.47;;;13.90;83.10;;;;;;6212250;23;20584;-73
2023/04/01 11:41:21;;;;;;;1.73;1.43;;;13.90;83.30;;;;;;6212209;23;20882;-73
2023/04/01 11:44:03;;;;;;;2.47;1.57;;;13.90;83.30;;;;;;6213065;23;20753;-74
2023/04/01 11:46:41;;;;;;;3.03;1.97;;;13.90;82.90;;;;;;6213665;23;20480;-73
2023/04/01 11:49:31;;;;;;;1.33;1.23;;;13.90;83.20;;;;;;6213137;23;20460;-73
2023/04/01 11:52:22;;;;;;;1.23;1.10;;;13.80;84.10;;;;;;6211603;23;20416;-73
2023/04/01 11:55:20;;;;;;;4.57;2.47;;;13.90;84.00;;;;;;6211331;23;20468;-70
2023/04/01 11:58:13;;;;;;;3.70;1.83;;;13.90;83.90;;;;;;6211102;23;20398;-71
2023/04/01 12:00:58;;;;;;;4.37;1.17;;;13.90;84.20;;;;;;6212893;23;20405;-70
2023/04/01 12:03:41;;;;;;;4.03;2.10;;;14.00;84.20;;;;;;6212448;23;20479;-70
2023/04/01 12:06:17;;;;;;;3.33;1.77;;;13.90;84.10;;;;;;6212754;23;20780;-71
2023/04/01 12:08:56;;;;;;;2.53;1.50;;;14.00;84.30;;;;;;6212936;23;20421;-72
2023/04/01 12:11:31;;;;;;;1.60;1.27;;;14.00;84.20;;;;;;6213312;23;20404;-72
2023/04/01 12:14:05;;;;;;;0.93;0.70;;;13.90;83.30;;;;;;6212922;23;20420;-71
2023/04/01 12:16:56;;;;;;;1.43;0.90;;;13.90;84.20;;;;;;6211667;23;20396;-70
2023/04/01 12:19:34;;;;;;;1.37;1.20;;;14.00;84.50;;;;;;6213295;23;20766;-70
2023/04/01 12:22:18;;;;;;;1.23;1.00;;;13.90;83.80;;;;;;6212770;23;20385;-71
2023/04/01 12:24:57;;;;;;;1.90;1.17;;;13.80;84.40;;;;;;6212664;23;20435;-71
2023/04/01 12:27:42;;;;;;;1.47;1.07;;;13.80;84.10;;;;;;6212676;23;20576;-69
2023/04/01 12:30:54;;;;;;;1.10;1.00;;;13.70;84.50;;;;;;6212420;23;20476;-70
2023/04/01 12:33:46;;;;;;;1.60;1.23;;;13.70;85.20;;;;;;6176587;23;20465;-72
2023/04/01 12:36:35;;;;;;;1.23;0.83;;;13.80;85.20;;;;;;6212721;23;20392;-72
2023/04/01 12:39:20;;;;;;;3.50;0.90;;;13.80;85.30;;;;;;6212139;23;20425;-71
2023/04/01 12:41:55;;;;;;;1.50;0.83;;;13.70;85.00;;;;;;6212054;23;20389;-72
2023/04/01 12:44:56;;;;;;;1.80;0.60;;;13.80;85.20;;;;;;6211644;23;20516;-72
2023/04/01 12:47:53;;;;;;;4.23;0.93;;;13.80;85.10;;;;;;6209463;23;20401;-71
2023/04/01 12:50:54;;;;;;;0.90;0.90;;;13.80;84.80;;;;;;6212181;23;20380;-71
2023/04/01 12:53:39;;;;;;;1.53;1.00;;;13.80;85.70;;;;;;6212084;23;20412;-72
2023/04/01 12:56:12;;;;;;;1.90;1.07;;;13.80;85.20;;;;;;6210850;23;20433;-72
2023/04/01 12:59:08;;;;;;;1.60;1.10;;;13.80;85.70;;;;;;6212149;23;20733;-72
2023/04/01 13:02:02;;;;;;;1.03;0.93;;;13.80;85.40;;;;;;6212654;23;20469;-71
2023/04/01 13:05:05;;;;;;;1.20;1.03;;;13.90;85.40;;;;;;6210943;23;20436;-71
2023/04/01 13:07:49;;;;;;;1.00;0.90;;;14.00;85.10;;;;;;6210843;23;20385;-72
2023/04/01 13:10:29;;;;;;;2.27;1.13;;;14.10;85.10;;;;;;6210787;23;20389;-71
2023/04/01 13:13:17;;;;;;;1.63;0.60;;;14.00;84.30;;;;;;6212423;23;20452;-72
2023/04/01 13:15:51;;;;;;;1.00;0.70;;;13.90;84.50;;;;;;6211659;23;20460;-71
2023/04/01 13:18:27;;;;;;;0.90;0.90;;;13.90;84.80;;;;;;6211840;23;20392;-72
2023/04/01 13:21:05;;;;;;;1.10;0.90;;;13.80;84.20;;;;;;6212451;23;20393;-71
2023/04/01 13:23:48;;;;;;;0.70;0.70;;;13.90;84.60;;;;;;6211423;23;20433;-73
2023/04/01 13:26:22;;;;;;;0.90;0.80;;;13.90;83.80;;;;;;6212242;23;20389;-71
2023/04/01 13:28:54;;;;;;;0.93;0.90;;;13.90;83.70;;;;;;6211110;23;20394;-72
2023/04/01 13:31:37;;;;;;;2.10;1.70;;;14.00;84.00;;;;;;6212012;23;20432;-71
2023/04/01 13:34:17;;;;;;;1.03;0.93;;;14.00;83.70;;;;;;6211952;23;20472;-71
2023/04/01 13:36:57;;;;;;;1.23;1.10;;;14.00;83.50;;;;;;6212136;23;20856;-70
2023/04/01 13:39:40;;;;;;;1.17;0.60;;;14.00;83.70;;;;;;6211165;23;20516;-71
2023/04/01 13:42:17;;;;;;;1.33;1.20;;;14.00;83.40;;;;;;6210826;23;20393;-71